Time;durP1;ratioP1;P1;durP2;ratioP2;P2;SDS_P1;SDS_P2;PMS_P1;PMS_P2;Temp;Humidity;BMP_temperature;BMP_pressure;BME280_temperature;BME280_humidity;BME280_pressure;Samples;Min_cycle;Max_cycle;Signal;HPM_P1;HPM_P2
2022/08/16 00:00:25;;;;;;;20.80;18.58;;;20.40;92.70;;;;;;5041870;28;20552;-72
2022/08/16 00:02:52;;;;;;;18.90;16.88;;;20.40;92.80;;;;;;5015680;28;20065;-69
2022/08/16 00:05:21;;;;;;;23.08;18.38;;;20.40;92.70;;;;;;5013097;28;20046;-71
2022/08/16 00:07:48;;;;;;;22.98;19.85;;;20.40;92.80;;;;;;5014322;28;20053;-70
2022/08/16 00:10:15;;;;;;;20.65;18.35;;;20.40;92.80;;;;;;5013063;28;20052;-70
2022/08/16 00:12:41;;;;;;;21.52;17.63;;;20.40;92.80;;;;;;4989247;28;20057;-71
2022/08/16 00:15:13;;;;;;;22.35;18.80;;;20.40;92.70;;;;;;5014341;28;20049;-70
2022/08/16 00:17:40;;;;;;;23.70;17.45;;;20.40;92.60;;;;;;4999512;28;20163;-70
2022/08/16 00:20:10;;;;;;;22.13;17.52;;;20.40;92.70;;;;;;5024886;28;19913;-70
2022/08/16 00:22:37;;;;;;;19.38;16.90;;;20.40;92.80;;;;;;5012596;28;20045;-71
2022/08/16 00:25:09;;;;;;;20.35;16.63;;;20.40;92.70;;;;;;5011563;28;20131;-70
2022/08/16 00:27:37;;;;;;;18.75;16.67;;;20.40;92.60;;;;;;5021792;28;20045;-71
2022/08/16 00:30:06;;;;;;;25.65;19.13;;;20.40;92.60;;;;;;5014822;28;20380;-71
2022/08/16 00:32:33;;;;;;;23.17;17.70;;;20.40;92.50;;;;;;4995855;28;20356;-70
2022/08/16 00:35:00;;;;;;;22.40;18.40;;;20.40;92.60;;;;;;5011159;28;20057;-70
2022/08/16 00:37:27;;;;;;;19.75;16.77;;;20.30;92.60;;;;;;5017468;28;20614;-70
2022/08/16 00:39:54;;;;;;;25.63;19.23;;;20.30;92.60;;;;;;5040479;28;20045;-69
2022/08/16 00:42:21;;;;;;;22.73;17.77;;;20.30;92.60;;;;;;4999365;28;20037;-70
2022/08/16 00:45:11;;;;;;;21.15;17.50;;;20.30;92.80;;;;;;5011777;28;20049;-70
2022/08/16 00:47:40;;;;;;;19.20;16.60;;;20.30;92.70;;;;;;5013194;28;20054;-70
2022/08/16 00:50:07;;;;;;;20.63;16.73;;;20.20;92.80;;;;;;5016979;28;20049;-70
2022/08/16 00:52:35;;;;;;;23.02;16.02;;;20.20;92.80;;;;;;5040333;28;20042;-69
2022/08/16 00:55:02;;;;;;;18.02;16.23;;;20.20;92.80;;;;;;5010384;28;20042;-71
2022/08/16 00:57:29;;;;;;;18.87;15.83;;;20.20;92.60;;;;;;5014600;28;20195;-70
2022/08/16 00:59:56;;;;;;;19.35;16.45;;;20.20;92.50;;;;;;5017095;28;20685;-70
2022/08/16 01:02:23;;;;;;;18.80;16.17;;;20.20;92.50;;;;;;5013312;28;20044;-69
2022/08/16 01:04:50;;;;;;;19.88;16.55;;;20.20;92.50;;;;;;5018856;28;20050;-71
2022/08/16 01:07:17;;;;;;;20.67;15.65;;;20.20;92.70;;;;;;5017304;28;20048;-71
2022/08/16 01:09:45;;;;;;;18.95;15.93;;;20.10;92.70;;;;;;5058072;28;20588;-71
2022/08/16 01:12:12;;;;;;;20.75;17.70;;;20.10;92.70;;;;;;5021842;28;20049;-71
2022/08/16 01:14:45;;;;;;;18.60;16.48;;;20.10;92.70;;;;;;5014774;28;21036;-71
2022/08/16 01:17:12;;;;;;;20.33;16.05;;;20.10;92.80;;;;;;5001919;28;20061;-71
2022/08/16 01:19:53;;;;;;;18.17;15.48;;;20.00;92.80;;;;;;4991125;28;20049;-71
2022/08/16 01:22:45;;;;;;;18.15;15.10;;;20.00;92.60;;;;;;5020014;28;20053;-71
2022/08/16 01:25:20;;;;;;;21.52;16.42;;;20.10;92.50;;;;;;5039483;28;20049;-71
2022/08/16 01:27:56;;;;;;;18.25;15.43;;;20.10;92.40;;;;;;5012203;28;20046;-70
2022/08/16 01:30:29;;;;;;;18.70;15.82;;;20.00;92.30;;;;;;5018933;28;20478;-71
2022/08/16 01:32:57;;;;;;;19.88;15.18;;;20.00;92.50;;;;;;4998771;28;20054;-71
2022/08/16 01:35:29;;;;;;;19.05;14.27;;;19.90;92.40;;;;;;5019421;28;20119;-71
2022/08/16 01:37:56;;;;;;;17.10;15.30;;;19.90;92.30;;;;;;5010868;28;20111;-70
2022/08/16 01:40:26;;;;;;;17.07;15.27;;;20.00;92.40;;;;;;4994071;28;20046;-71
2022/08/16 01:42:54;;;;;;;15.98;14.23;;;20.00;92.20;;;;;;5009443;28;20554;-70
2022/08/16 01:45:21;;;;;;;18.10;14.60;;;20.00;92.20;;;;;;5016103;28;20046;-70
2022/08/16 01:47:49;;;;;;;16.70;13.98;;;19.90;92.10;;;;;;4993983;28;20491;-71
2022/08/16 01:50:16;;;;;;;19.70;14.50;;;20.00;92.10;;;;;;5038515;28;20060;-71
2022/08/16 01:52:43;;;;;;;19.27;15.15;;;20.00;91.90;;;;;;5018252;28;20042;-71
2022/08/16 01:55:10;;;;;;;20.55;15.57;;;20.00;91.90;;;;;;5044735;28;20049;-71
2022/08/16 01:57:37;;;;;;;16.38;14.32;;;19.90;92.10;;;;;;5015935;28;20559;-70
2022/08/16 02:00:08;;;;;;;18.80;15.85;;;19.90;92.10;;;;;;4999376;28;20057;-70
2022/08/16 02:02:35;;;;;;;18.90;14.38;;;19.80;92.20;;;;;;5011647;28;20542;-70
2022/08/16 02:05:03;;;;;;;18.67;14.65;;;19.80;92.00;;;;;;5010943;28;20111;-70
2022/08/16 02:07:30;;;;;;;15.80;14.17;;;19.80;92.00;;;;;;4996124;28;20045;-71
2022/08/16 02:09:57;;;;;;;20.35;15.02;;;19.80;91.90;;;;;;5015141;28;20572;-71
2022/08/16 02:12:25;;;;;;;16.00;12.85;;;19.80;91.90;;;;;;5011301;28;20085;-71
2022/08/16 02:14:52;;;;;;;17.98;13.30;;;19.70;92.00;;;;;;5012852;28;20060;-71
2022/08/16 02:17:19;;;;;;;16.45;13.10;;;19.70;91.90;;;;;;5038411;28;20080;-70
2022/08/16 02:19:48;;;;;;;14.65;12.85;;;19.70;92.00;;;;;;5058294;28;20049;-71
2022/08/16 02:22:17;;;;;;;14.90;13.23;;;19.70;91.90;;;;;;5013741;28;20454;-70
2022/08/16 02:24:45;;;;;;;17.73;12.07;;;19.70;92.00;;;;;;5040439;28;20645;-71
2022/08/16 02:27:12;;;;;;;18.55;13.60;;;19.70;91.90;;;;;;5053240;28;20045;-70
2022/08/16 02:29:39;;;;;;;17.65;13.38;;;19.70;91.80;;;;;;5001577;28;20053;-71
2022/08/16 02:32:07;;;;;;;16.55;12.35;;;19.70;91.90;;;;;;4997789;28;20077;-70
2022/08/16 02:34:34;;;;;;;16.05;12.23;;;19.70;91.70;;;;;;5011952;28;20054;-71
2022/08/16 02:37:01;;;;;;;16.08;13.55;;;19.70;91.70;;;;;;5014563;28;20578;-70
2022/08/16 02:39:28;;;;;;;17.27;12.50;;;19.70;91.80;;;;;;5017925;28;20135;-71
2022/08/16 02:41:55;;;;;;;13.00;11.60;;;19.70;91.60;;;;;;5020932;28;20371;-70
2022/08/16 02:44:22;;;;;;;14.57;12.45;;;19.70;91.50;;;;;;5018122;28;20367;-70
2022/08/16 02:46:49;;;;;;;16.88;12.82;;;19.70;91.60;;;;;;5017802;28;20038;-71
2022/08/16 02:49:16;;;;;;;15.13;13.15;;;19.70;91.70;;;;;;5014389;28;20053;-70
2022/08/16 02:51:43;;;;;;;19.90;12.63;;;19.70;91.60;;;;;;5009066;28;20156;-71
2022/08/16 02:54:12;;;;;;;18.25;11.32;;;19.70;91.70;;;;;;5008774;28;20146;-71
2022/08/16 02:56:40;;;;;;;16.48;11.38;;;19.70;91.70;;;;;;5037543;28;20375;-71
2022/08/16 02:59:07;;;;;;;14.87;11.87;;;19.80;91.70;;;;;;4993866;28;20081;-70
2022/08/16 03:01:34;;;;;;;19.05;11.57;;;19.80;91.60;;;;;;4992683;28;20124;-71
2022/08/16 03:04:01;;;;;;;14.40;11.82;;;19.80;91.50;;;;;;5059119;28;20148;-72
2022/08/16 03:06:29;;;;;;;14.82;10.95;;;19.80;91.60;;;;;;4997114;28;20456;-72
2022/08/16 03:08:55;;;;;;;13.95;11.65;;;19.80;91.50;;;;;;5008837;28;20613;-70
2022/08/16 03:11:22;;;;;;;16.30;11.85;;;19.80;91.40;;;;;;5008414;28;20049;-70
2022/08/16 03:13:52;;;;;;;14.55;11.88;;;19.80;91.50;;;;;;5009021;28;20080;-70
2022/08/16 03:16:18;;;;;;;13.82;12.23;;;19.80;91.40;;;;;;5037653;28;20049;-71
2022/08/16 03:18:45;;;;;;;18.85;12.20;;;19.80;91.30;;;;;;5036290;28;20349;-70
2022/08/16 03:21:12;;;;;;;15.20;12.07;;;19.80;91.40;;;;;;4993034;28;20053;-71
2022/08/16 03:23:39;;;;;;;12.32;10.65;;;19.70;91.40;;;;;;4997066;28;20641;-71
2022/08/16 03:26:06;;;;;;;15.15;11.52;;;19.70;91.40;;;;;;5015845;28;20049;-70
2022/08/16 03:28:33;;;;;;;14.82;12.40;;;19.70;91.30;;;;;;5010886;28;20108;-69
2022/08/16 03:31:00;;;;;;;15.32;11.85;;;19.70;91.30;;;;;;5036556;28;20053;-71
2022/08/16 03:33:27;;;;;;;14.32;11.80;;;19.70;91.30;;;;;;5016997;28;20060;-70
2022/08/16 03:35:58;;;;;;;13.32;11.20;;;19.70;91.30;;;;;;5001980;28;20050;-71
2022/08/16 03:38:24;;;;;;;12.52;10.68;;;19.70;91.20;;;;;;5029225;28;20049;-71
2022/08/16 03:40:52;;;;;;;17.08;12.45;;;19.70;91.10;;;;;;5001555;28;20491;-70
2022/08/16 03:43:19;;;;;;;15.18;11.70;;;19.70;91.30;;;;;;5014455;28;20042;-70
2022/08/16 03:45:46;;;;;;;14.20;11.93;;;19.60;91.30;;;;;;5008072;28;20061;-70
2022/08/16 03:48:13;;;;;;;15.43;12.43;;;19.70;91.30;;;;;;4998585;28;20046;-70
2022/08/16 03:50:40;;;;;;;17.60;12.27;;;19.70;91.30;;;;;;5043602;28;20060;-70
2022/08/16 03:53:08;;;;;;;16.30;11.85;;;19.70;91.30;;;;;;5016317;28;20127;-72
2022/08/16 03:55:34;;;;;;;17.17;12.60;;;19.70;91.30;;;;;;5002999;28;20050;-72
2022/08/16 03:58:01;;;;;;;16.17;12.00;;;19.70;91.20;;;;;;5000601;28;20195;-70
2022/08/16 04:00:29;;;;;;;15.90;12.27;;;19.70;91.20;;;;;;5007537;28;20460;-70
2022/08/16 04:02:57;;;;;;;15.20;11.60;;;19.60;91.10;;;;;;5017279;28;20552;-71
2022/08/16 04:05:24;;;;;;;15.07;11.95;;;19.60;91.30;;;;;;4982905;28;20073;-71
2022/08/16 04:07:51;;;;;;;14.60;11.45;;;19.60;91.00;;;;;;4994113;28;20041;-70
2022/08/16 04:10:18;;;;;;;13.93;11.73;;;19.60;91.10;;;;;;5012257;28;20103;-71
2022/08/16 04:12:45;;;;;;;18.13;12.18;;;19.60;91.00;;;;;;5040010;28;20037;-71
2022/08/16 04:15:14;;;;;;;19.48;11.98;;;19.60;91.00;;;;;;5009559;28;20372;-70
2022/08/16 04:17:41;;;;;;;;;;;19.60;91.10;;;;;;5019339;28;20049;-71
2022/08/16 04:20:08;;;;;;;15.98;11.80;;;19.50;91.10;;;;;;5009741;28;20004;-71
2022/08/16 04:22:36;;;;;;;15.82;11.48;;;19.50;91.10;;;;;;4998591;28;20051;-70
2022/08/16 04:25:04;;;;;;;14.68;10.48;;;19.50;91.10;;;;;;5013286;28;20064;-70
2022/08/16 04:27:31;;;;;;;13.75;12.23;;;19.50;91.20;;;;;;5018516;28;20056;-71
2022/08/16 04:29:58;;;;;;;16.08;11.32;;;19.50;90.90;;;;;;5023490;28;20145;-70
2022/08/16 04:32:25;;;;;;;14.98;11.50;;;19.50;91.00;;;;;;5016308;28;20111;-71
2022/08/16 04:34:52;;;;;;;13.75;11.30;;;19.50;90.90;;;;;;5024907;28;20049;-71
2022/08/16 04:37:19;;;;;;;13.23;10.63;;;19.60;90.90;;;;;;5017343;28;20464;-70
2022/08/16 04:39:46;;;;;;;15.35;10.93;;;19.60;91.00;;;;;;5011016;28;20077;-71
2022/08/16 04:42:16;;;;;;;14.93;11.15;;;19.60;91.00;;;;;;5010882;28;20081;-71
2022/08/16 04:44:43;;;;;;;14.85;10.75;;;19.60;90.90;;;;;;5011546;28;20204;-71
2022/08/16 04:47:10;;;;;;;12.83;10.40;;;19.60;90.80;;;;;;5015171;28;20472;-70
2022/08/16 04:49:37;;;;;;;14.82;11.23;;;19.60;90.70;;;;;;5014302;28;20247;-71
2022/08/16 04:52:05;;;;;;;15.52;11.10;;;19.60;90.60;;;;;;5017047;28;20049;-70
2022/08/16 04:54:32;;;;;;;13.70;10.10;;;19.50;90.60;;;;;;5013308;28;20117;-72
2022/08/16 04:56:59;;;;;;;14.63;10.00;;;19.60;90.50;;;;;;5014622;28;20144;-70
2022/08/16 04:59:26;;;;;;;16.15;11.52;;;19.50;90.40;;;;;;5039416;28;20041;-70
2022/08/16 05:01:55;;;;;;;13.73;10.38;;;19.50;90.20;;;;;;5010035;28;20045;-70
2022/08/16 05:04:23;;;;;;;14.90;10.95;;;19.40;90.30;;;;;;5013417;28;20056;-70
2022/08/16 05:06:49;;;;;;;14.60;10.90;;;19.40;90.40;;;;;;4999371;28;20049;-69
2022/08/16 05:09:15;;;;;;;15.02;10.75;;;19.40;90.30;;;;;;5018656;28;20050;-70
2022/08/16 05:11:41;;;;;;;16.20;10.85;;;19.50;90.30;;;;;;5009942;28;20053;-70
2022/08/16 05:14:06;;;;;;;12.40;10.45;;;19.50;90.30;;;;;;5011414;28;20511;-70
2022/08/16 05:16:32;;;;;;;16.42;10.55;;;19.50;90.30;;;;;;5002488;28;20078;-70
2022/08/16 05:18:59;;;;;;;13.20;10.50;;;19.40;90.40;;;;;;4990392;28;20515;-71
2022/08/16 05:21:26;;;;;;;14.75;10.40;;;19.40;90.50;;;;;;5014786;28;20492;-70
2022/08/16 05:23:51;;;;;;;14.43;9.77;;;19.50;90.50;;;;;;5030301;28;20046;-70
2022/08/16 05:26:18;;;;;;;11.55;9.23;;;19.50;90.50;;;;;;4999923;28;20064;-70
2022/08/16 05:28:43;;;;;;;17.75;9.55;;;19.50;90.50;;;;;;5039449;28;20049;-70
2022/08/16 05:31:09;;;;;;;15.75;9.57;;;19.50;90.40;;;;;;5010072;28;20110;-70
2022/08/16 05:33:35;;;;;;;13.40;9.70;;;19.60;90.50;;;;;;4998158;28;20041;-70
2022/08/16 05:36:01;;;;;;;14.68;9.77;;;19.60;90.30;;;;;;5015405;28;20053;-71
2022/08/16 05:38:30;;;;;;;11.70;8.90;;;19.60;90.30;;;;;;4999468;28;20108;-71
2022/08/16 05:40:56;;;;;;;16.98;9.60;;;19.70;90.30;;;;;;4993329;28;20038;-70
2022/08/16 05:43:22;;;;;;;14.68;9.18;;;19.70;90.10;;;;;;5010387;28;20042;-70
2022/08/16 05:45:48;;;;;;;13.15;9.60;;;19.70;90.10;;;;;;5006406;28;20071;-70
2022/08/16 05:48:14;;;;;;;16.77;9.27;;;19.70;90.10;;;;;;4965138;28;20061;-70
2022/08/16 05:50:39;;;;;;;14.52;9.20;;;19.80;90.10;;;;;;5017808;28;20056;-71
2022/08/16 05:53:05;;;;;;;12.27;9.30;;;19.80;90.10;;;;;;4993957;28;20050;-70
2022/08/16 05:55:31;;;;;;;15.48;9.50;;;19.80;90.10;;;;;;5006636;28;20041;-71
2022/08/16 05:57:57;;;;;;;17.08;9.30;;;19.80;90.20;;;;;;5021600;28;20129;-71
2022/08/16 06:00:23;;;;;;;15.73;10.13;;;19.90;90.10;;;;;;5008752;28;20054;-71
2022/08/16 06:02:50;;;;;;;14.27;8.57;;;19.90;90.20;;;;;;5054237;28;20046;-72
2022/08/16 06:05:16;;;;;;;17.23;9.98;;;19.90;90.20;;;;;;4993295;28;20042;-71
2022/08/16 06:07:41;;;;;;;12.07;8.55;;;20.00;90.20;;;;;;5014771;28;20056;-72
2022/08/16 06:10:08;;;;;;;11.80;9.05;;;20.00;90.00;;;;;;5016540;28;20371;-71
2022/08/16 06:12:33;;;;;;;10.75;8.20;;;20.10;89.70;;;;;;5016429;28;20112;-73
2022/08/16 06:15:01;;;;;;;13.18;8.50;;;20.10;89.60;;;;;;5021901;28;20542;-74
2022/08/16 06:17:28;;;;;;;12.07;8.57;;;20.20;89.90;;;;;;5019616;28;20049;-71
2022/08/16 06:19:53;;;;;;;11.48;8.05;;;20.30;89.80;;;;;;5005273;28;20064;-72
2022/08/16 06:22:19;;;;;;;13.07;8.30;;;20.30;89.40;;;;;;5010435;28;20054;-72
2022/08/16 06:24:45;;;;;;;12.88;8.30;;;20.40;89.40;;;;;;5013940;28;20144;-72
2022/08/16 06:27:11;;;;;;;13.07;8.38;;;20.50;89.40;;;;;;5010428;28;20049;-72
2022/08/16 06:29:37;;;;;;;12.45;7.68;;;20.40;88.70;;;;;;4982022;28;20046;-72
2022/08/16 06:32:03;;;;;;;11.93;8.15;;;20.50;88.80;;;;;;5015501;28;20056;-72
2022/08/16 06:34:30;;;;;;;11.25;7.82;;;20.50;88.90;;;;;;5010280;28;20053;-72
2022/08/16 06:36:59;;;;;;;10.40;7.38;;;20.60;88.70;;;;;;5044687;28;20083;-73
2022/08/16 06:39:26;;;;;;;14.35;8.63;;;20.60;88.80;;;;;;5009282;28;20054;-73
2022/08/16 06:41:53;;;;;;;14.05;8.55;;;20.60;88.30;;;;;;5011271;28;20042;-72
2022/08/16 06:44:20;;;;;;;11.80;7.68;;;20.70;88.00;;;;;;5008027;28;20703;-73
2022/08/16 06:46:47;;;;;;;12.48;8.00;;;20.70;88.00;;;;;;5015618;28;20046;-72
2022/08/16 06:49:15;;;;;;;15.32;7.32;;;20.80;87.50;;;;;;5003473;28;20064;-72
2022/08/16 06:51:41;;;;;;;12.45;7.45;;;20.80;87.70;;;;;;5014421;28;20053;-71
2022/08/16 06:54:07;;;;;;;10.95;7.70;;;20.90;87.70;;;;;;5042681;28;20050;-71
2022/08/16 06:56:33;;;;;;;10.25;7.57;;;21.00;86.90;;;;;;5004686;28;20056;-71
2022/08/16 06:58:58;;;;;;;11.65;7.47;;;21.00;86.60;;;;;;5024178;28;20545;-71
2022/08/16 07:01:26;;;;;;;13.15;7.30;;;21.00;86.20;;;;;;4988069;28;20060;-72
2022/08/16 07:03:52;;;;;;;15.70;7.82;;;21.20;86.20;;;;;;5012006;28;20080;-72
2022/08/16 07:06:21;;;;;;;13.48;7.30;;;21.30;85.90;;;;;;5017239;28;20049;-72
2022/08/16 07:08:48;;;;;;;;;;;21.40;83.20;;;;;;5013584;28;20095;-73
2022/08/16 07:11:19;;;;;;;14.25;7.90;;;21.40;82.60;;;;;;5060191;28;20281;-72
2022/08/16 07:13:47;;;;;;;11.40;7.45;;;21.50;83.50;;;;;;4993661;28;20968;-72
2022/08/16 07:16:15;;;;;;;9.43;6.90;;;21.60;83.20;;;;;;5004957;28;20168;-72
2022/08/16 07:18:44;;;;;;;10.25;7.43;;;21.60;83.20;;;;;;5001954;28;20628;-73
2022/08/16 07:21:14;;;;;;;14.68;6.85;;;21.60;82.20;;;;;;5012065;28;20042;-69
2022/08/16 07:23:47;;;;;;;11.10;6.63;;;21.70;81.40;;;;;;5042543;28;20484;-69
2022/08/16 07:26:21;;;;;;;10.57;6.45;;;21.80;81.80;;;;;;5059905;28;20451;-69
2022/08/16 07:28:47;;;;;;;11.85;6.38;;;21.90;81.50;;;;;;5011034;28;20049;-70
2022/08/16 07:31:13;;;;;;;10.32;5.70;;;22.00;80.90;;;;;;5008129;28;20046;-70
2022/08/16 07:33:39;;;;;;;8.23;5.68;;;22.00;80.10;;;;;;5008979;28;20053;-69
2022/08/16 07:36:07;;;;;;;10.18;6.25;;;22.00;79.80;;;;;;5010816;28;20106;-74
2022/08/16 07:38:34;;;;;;;11.25;6.00;;;22.00;79.40;;;;;;5011901;28;20072;-74
2022/08/16 07:41:00;;;;;;;12.95;5.68;;;22.20;78.20;;;;;;5011208;28;20057;-72
2022/08/16 07:43:28;;;;;;;9.35;5.93;;;22.20;78.20;;;;;;5021432;28;20808;-69
2022/08/16 07:45:55;;;;;;;9.50;5.18;;;22.20;78.80;;;;;;5015382;28;20099;-69
2022/08/16 07:48:21;;;;;;;8.25;4.95;;;22.30;77.00;;;;;;5041641;28;21882;-69
2022/08/16 07:50:47;;;;;;;8.48;5.28;;;22.30;77.30;;;;;;5015128;28;20128;-69
2022/08/16 07:53:13;;;;;;;7.95;5.07;;;22.40;77.10;;;;;;5010481;28;20140;-70
2022/08/16 07:55:40;;;;;;;6.63;4.43;;;22.40;76.10;;;;;;5041684;28;20423;-69
2022/08/16 07:58:19;;;;;;;7.55;4.47;;;22.40;75.20;;;;;;5016401;28;20111;-70
2022/08/16 08:00:54;;;;;;;7.95;4.80;;;22.50;75.90;;;;;;5024831;28;20107;-70
2022/08/16 08:03:21;;;;;;;6.27;4.37;;;22.50;75.00;;;;;;5040953;28;20048;-69
2022/08/16 08:05:48;;;;;;;7.45;4.93;;;22.50;73.60;;;;;;5015154;28;20042;-70
2022/08/16 08:08:14;;;;;;;7.45;4.22;;;22.60;74.60;;;;;;4994059;28;20045;-69
2022/08/16 08:10:40;;;;;;;8.63;4.60;;;22.70;73.70;;;;;;5063134;28;20073;-71
2022/08/16 08:13:07;;;;;;;7.05;4.28;;;22.70;74.30;;;;;;5012135;28;20412;-69
2022/08/16 08:15:33;;;;;;;7.60;4.65;;;22.80;74.00;;;;;;5011614;28;20091;-70
2022/08/16 08:18:00;;;;;;;10.35;4.88;;;22.90;74.10;;;;;;5014708;28;20063;-68
2022/08/16 08:20:26;;;;;;;8.60;4.85;;;22.90;72.20;;;;;;5019195;28;20160;-70
2022/08/16 08:22:52;;;;;;;8.55;5.07;;;23.00;72.00;;;;;;4997328;28;20371;-69
2022/08/16 08:25:19;;;;;;;4.85;4.25;;;23.00;72.50;;;;;;5006155;28;20065;-69
2022/08/16 08:27:46;;;;;;;6.47;4.45;;;23.00;71.50;;;;;;5003026;28;20049;-69
2022/08/16 08:30:12;;;;;;;7.18;4.63;;;23.10;71.80;;;;;;5011403;28;20271;-69
2022/08/16 08:32:39;;;;;;;5.60;4.22;;;23.10;71.70;;;;;;5012614;28;20041;-69
2022/08/16 08:35:07;;;;;;;8.52;4.32;;;23.20;71.40;;;;;;5012837;28;20042;-69
2022/08/16 08:37:34;;;;;;;8.55;4.75;;;23.30;71.60;;;;;;5019893;28;20124;-69
2022/08/16 08:40:00;;;;;;;9.80;4.20;;;23.30;70.70;;;;;;4999572;28;20041;-69
2022/08/16 08:42:27;;;;;;;6.53;4.80;;;23.30;69.70;;;;;;5011130;28;20041;-70
2022/08/16 08:44:53;;;;;;;6.10;4.10;;;23.30;70.20;;;;;;4979211;28;20045;-71
2022/08/16 08:47:19;;;;;;;6.53;4.38;;;23.30;70.90;;;;;;4998174;28;20046;-73
2022/08/16 08:49:46;;;;;;;5.53;3.83;;;23.40;70.00;;;;;;5016569;28;20083;-73
2022/08/16 08:52:12;;;;;;;10.38;4.60;;;23.40;71.10;;;;;;5016437;28;20152;-71
2022/08/16 08:54:38;;;;;;;7.40;3.80;;;23.50;72.00;;;;;;5011249;28;20532;-71
2022/08/16 08:57:05;;;;;;;6.85;3.95;;;23.50;69.70;;;;;;5012958;28;20053;-72
2022/08/16 08:59:33;;;;;;;6.97;3.70;;;23.50;69.30;;;;;;5011681;28;20053;-71
2022/08/16 09:02:00;;;;;;;7.03;3.80;;;23.60;69.40;;;;;;5010503;28;20376;-71
2022/08/16 09:04:26;;;;;;;6.90;4.20;;;23.70;67.80;;;;;;5010874;28;20458;-72
2022/08/16 09:06:52;;;;;;;7.35;4.03;;;23.80;68.50;;;;;;5016685;28;20038;-72
2022/08/16 09:09:18;;;;;;;4.70;3.60;;;23.80;68.20;;;;;;5010883;28;20057;-73
2022/08/16 09:11:44;;;;;;;6.30;4.40;;;23.80;66.50;;;;;;5025090;28;20071;-73
2022/08/16 09:14:10;;;;;;;8.93;4.15;;;23.80;67.00;;;;;;5023944;28;20045;-69
2022/08/16 09:16:37;;;;;;;11.18;4.47;;;23.90;66.90;;;;;;5026996;28;20099;-69
2022/08/16 09:19:03;;;;;;;8.98;4.38;;;23.90;67.40;;;;;;5018238;28;20060;-71
2022/08/16 09:21:29;;;;;;;8.68;4.18;;;24.00;67.60;;;;;;5019200;28;20436;-70
2022/08/16 09:23:56;;;;;;;6.70;3.85;;;24.00;66.30;;;;;;5015454;28;20087;-69
2022/08/16 09:26:23;;;;;;;8.00;4.00;;;24.10;66.60;;;;;;5012334;28;20512;-69
2022/08/16 09:28:50;;;;;;;8.90;4.32;;;24.10;66.30;;;;;;4992836;28;20065;-69
2022/08/16 09:31:16;;;;;;;9.13;3.80;;;24.10;67.40;;;;;;4999133;28;20088;-70
2022/08/16 09:33:42;;;;;;;8.27;5.22;;;24.20;67.40;;;;;;5010297;28;20049;-69
2022/08/16 09:36:08;;;;;;;9.75;3.97;;;24.20;67.10;;;;;;5009711;28;20045;-69
2022/08/16 09:38:34;;;;;;;8.65;4.25;;;24.30;66.10;;;;;;5008966;28;20433;-69
2022/08/16 09:41:02;;;;;;;6.53;4.30;;;24.40;64.70;;;;;;5026555;28;20451;-69
2022/08/16 09:43:29;;;;;;;6.57;3.92;;;24.60;66.10;;;;;;5011077;28;20056;-69
2022/08/16 09:45:55;;;;;;;10.55;4.63;;;24.70;64.30;;;;;;5010410;28;20045;-72
2022/08/16 09:48:22;;;;;;;7.38;4.25;;;24.60;64.40;;;;;;5012894;28;20104;-73
2022/08/16 09:50:48;;;;;;;9.23;4.53;;;24.70;63.50;;;;;;5012839;28;20042;-72
2022/08/16 09:53:16;;;;;;;7.80;4.25;;;24.70;62.50;;;;;;4992781;28;20050;-72
2022/08/16 09:55:45;;;;;;;8.10;4.38;;;24.70;64.10;;;;;;5020979;28;20045;-72
2022/08/16 09:58:12;;;;;;;8.73;4.38;;;24.70;65.40;;;;;;5025870;28;20629;-71
2022/08/16 10:00:37;;;;;;;8.50;4.25;;;24.90;65.00;;;;;;5020152;28;20053;-71
2022/08/16 10:03:04;;;;;;;10.00;5.00;;;25.00;65.20;;;;;;5025277;28;20045;-73
2022/08/16 10:05:36;;;;;;;8.52;4.65;;;25.00;64.80;;;;;;5018808;28;20041;-72
2022/08/16 10:08:03;;;;;;;7.53;4.43;;;25.10;64.50;;;;;;5021393;28;20832;-71
2022/08/16 10:10:29;;;;;;;6.38;4.22;;;25.10;63.60;;;;;;5011035;28;20097;-72
2022/08/16 10:13:13;;;;;;;5.72;3.60;;;25.10;61.80;;;;;;5004091;28;20126;-72
2022/08/16 10:15:41;;;;;;;7.63;4.13;;;25.10;63.50;;;;;;5019221;28;20202;-72
2022/08/16 10:18:07;;;;;;;6.25;3.75;;;25.10;63.90;;;;;;5020632;28;20053;-66
2022/08/16 10:20:38;;;;;;;7.50;3.53;;;25.10;62.30;;;;;;5022869;28;20056;-68
2022/08/16 10:23:07;;;;;;;4.63;3.03;;;25.30;62.30;;;;;;5021084;28;20046;-67
2022/08/16 10:25:38;;;;;;;4.90;2.80;;;25.40;62.10;;;;;;4977279;28;1099830;-66
2022/08/16 10:28:06;;;;;;;6.28;3.00;;;25.60;60.30;;;;;;5021005;28;20455;-72
2022/08/16 10:30:31;;;;;;;5.03;3.10;;;25.80;59.90;;;;;;5018018;28;20128;-70
2022/08/16 10:32:57;;;;;;;3.67;2.67;;;26.00;57.90;;;;;;5040999;28;20131;-72
2022/08/16 10:35:23;;;;;;;5.75;3.30;;;26.00;58.40;;;;;;5024058;28;20045;-71
2022/08/16 10:37:49;;;;;;;6.82;3.58;;;26.10;59.60;;;;;;5020929;28;20148;-70
2022/08/16 10:40:15;;;;;;;9.60;3.60;;;26.20;57.80;;;;;;4991015;28;20076;-71
2022/08/16 10:42:43;;;;;;;7.65;3.35;;;26.30;56.40;;;;;;5007304;28;20045;-70
2022/08/16 10:45:09;;;;;;;8.90;3.40;;;26.40;57.00;;;;;;5043348;28;20045;-70
2022/08/16 10:47:37;;;;;;;7.45;4.00;;;26.30;57.80;;;;;;5003487;28;20053;-70
2022/08/16 10:50:05;;;;;;;7.80;3.60;;;26.40;55.90;;;;;;5009316;28;20941;-70
2022/08/16 10:52:32;;;;;;;5.38;3.42;;;26.50;55.40;;;;;;5006129;28;20050;-70
2022/08/16 10:54:59;;;;;;;8.77;3.70;;;26.50;55.40;;;;;;5014149;28;20056;-70
2022/08/16 10:57:26;;;;;;;12.80;3.65;;;26.50;56.40;;;;;;5001095;28;20049;-71
2022/08/16 10:59:52;;;;;;;8.07;3.78;;;26.60;56.70;;;;;;5017259;28;20168;-71
2022/08/16 11:02:19;;;;;;;6.57;2.80;;;26.70;56.10;;;;;;5009637;28;20045;-70
2022/08/16 11:04:45;;;;;;;4.32;2.70;;;26.50;54.30;;;;;;5019120;28;20042;-70
2022/08/16 11:07:10;;;;;;;4.65;2.90;;;26.30;54.50;;;;;;4984687;28;20422;-70
2022/08/16 11:09:39;;;;;;;5.75;3.00;;;26.30;56.20;;;;;;5023073;28;20080;-70
2022/08/16 11:12:05;;;;;;;9.18;2.90;;;26.20;55.70;;;;;;5039539;28;20111;-70
2022/08/16 11:14:32;;;;;;;4.72;2.92;;;26.20;55.60;;;;;;5019487;28;20057;-70
2022/08/16 11:17:00;;;;;;;4.60;3.03;;;26.20;56.30;;;;;;4995432;28;20048;-70
2022/08/16 11:19:28;;;;;;;6.40;3.40;;;26.20;56.10;;;;;;5007171;28;20061;-70
2022/08/16 11:21:56;;;;;;;12.25;3.17;;;26.30;54.70;;;;;;5015510;28;20041;-70
2022/08/16 11:24:24;;;;;;;4.93;3.10;;;26.40;53.80;;;;;;5007791;28;20057;-70
2022/08/16 11:26:51;;;;;;;5.37;3.00;;;26.50;53.00;;;;;;5012804;28;20321;-70
2022/08/16 11:29:18;;;;;;;5.57;2.80;;;26.70;54.70;;;;;;5018972;28;20045;-70
2022/08/16 11:31:45;;;;;;;5.63;3.25;;;27.10;54.70;;;;;;5010852;28;20052;-70
2022/08/16 11:34:12;;;;;;;6.25;2.88;;;27.20;53.50;;;;;;5010488;28;20045;-70
2022/08/16 11:36:38;;;;;;;5.38;3.47;;;27.30;53.80;;;;;;5028865;28;20049;-70
2022/08/16 11:39:04;;;;;;;5.38;3.03;;;27.50;54.70;;;;;;5000269;28;20467;-69
2022/08/16 11:41:32;;;;;;;4.53;2.63;;;27.50;52.80;;;;;;5027841;28;20081;-70
2022/08/16 11:43:59;;;;;;;9.45;3.25;;;27.60;52.90;;;;;;5022906;28;20053;-71
2022/08/16 11:46:26;;;;;;;8.23;3.20;;;27.70;53.40;;;;;;5029618;28;20084;-70
2022/08/16 11:48:54;;;;;;;4.35;3.10;;;27.90;53.50;;;;;;5002481;28;20414;-71
2022/08/16 11:51:21;;;;;;;8.10;3.35;;;27.90;52.70;;;;;;5012979;28;20049;-70
2022/08/16 11:53:47;;;;;;;9.05;3.85;;;27.90;51.50;;;;;;4996760;28;20137;-71
2022/08/16 11:56:13;;;;;;;8.30;3.60;;;27.80;51.60;;;;;;5015263;28;20064;-71
2022/08/16 11:58:41;;;;;;;8.60;3.17;;;28.00;51.50;;;;;;5012067;28;20061;-70
2022/08/16 12:01:06;;;;;;;7.15;2.88;;;28.10;51.10;;;;;;5012027;28;20172;-71
2022/08/16 12:03:32;;;;;;;6.68;2.70;;;28.30;51.10;;;;;;5012405;28;20164;-70
2022/08/16 12:06:01;;;;;;;6.32;3.08;;;28.10;50.40;;;;;;5015667;28;20120;-70
2022/08/16 12:08:27;;;;;;;4.72;2.88;;;27.90;50.90;;;;;;4995559;28;20472;-71
2022/08/16 12:10:54;;;;;;;4.28;3.00;;;27.80;50.30;;;;;;5018595;28;20056;-70
2022/08/16 12:13:19;;;;;;;11.65;3.60;;;27.70;51.40;;;;;;5016783;28;20053;-70
2022/08/16 12:15:45;;;;;;;6.28;3.30;;;27.50;51.00;;;;;;5025791;28;20415;-70
2022/08/16 12:18:12;;;;;;;6.97;3.00;;;27.50;51.00;;;;;;5041510;28;20049;-70
2022/08/16 12:20:40;;;;;;;3.63;2.47;;;27.50;51.30;;;;;;5001169;28;20049;-70
2022/08/16 12:23:06;;;;;;;;;;;27.50;52.20;;;;;;5014798;28;20045;-71
2022/08/16 12:25:32;;;;;;;4.45;2.83;;;27.50;52.90;;;;;;5018881;28;19921;-71
2022/08/16 12:27:58;;;;;;;9.93;3.40;;;27.70;51.80;;;;;;5011160;28;20053;-71
2022/08/16 12:30:30;;;;;;;7.93;3.05;;;27.80;50.00;;;;;;5011052;28;20046;-70
2022/08/16 12:32:56;;;;;;;7.38;3.35;;;28.00;49.90;;;;;;4995211;28;20053;-71
2022/08/16 12:35:23;;;;;;;5.05;2.83;;;28.00;49.30;;;;;;5012541;28;20057;-70
2022/08/16 12:37:50;;;;;;;6.63;3.17;;;28.00;49.40;;;;;;4997704;28;20053;-70